createdAt,value
2022-12-03T17:08:49.458Z,22.10
2022-12-03T17:13:13.735Z,22.10
2022-12-03T17:15:41.238Z,22.00
2022-12-03T17:18:09.936Z,22.10
2022-12-03T17:20:37.454Z,22.10
2022-12-03T17:23:04.969Z,22.10
2022-12-03T17:25:32.680Z,22.10
2022-12-03T17:28:00.385Z,22.10
2022-12-03T17:30:30.911Z,22.10
2022-12-03T17:32:58.393Z,22.10
2022-12-03T17:35:26.864Z,22.10
2022-12-03T17:37:54.033Z,22.10
2022-12-03T17:40:20.986Z,22.00
2022-12-03T17:42:48.201Z,22.10
2022-12-03T17:45:17.252Z,22.00
2022-12-03T17:47:44.927Z,22.00
2022-12-03T17:50:13.124Z,22.00
2022-12-03T17:52:40.124Z,22.00
2022-12-03T17:55:15.706Z,22.00
2022-12-03T17:57:48.609Z,22.10
2022-12-03T18:00:16.438Z,22.10
2022-12-03T18:02:43.525Z,22.00
2022-12-03T18:05:10.659Z,22.00
2022-12-03T18:07:39.105Z,22.00
2022-12-03T18:10:07.305Z,22.00
2022-12-03T18:12:34.326Z,21.90
2022-12-03T18:15:01.564Z,21.90
2022-12-03T18:17:28.787Z,21.90
2022-12-03T18:19:56.322Z,21.90
2022-12-03T18:22:28.061Z,21.90
2022-12-03T18:24:55.655Z,21.90
2022-12-03T18:27:23.835Z,21.90
2022-12-03T18:29:53.275Z,21.90
2022-12-03T18:32:28.671Z,21.90
2022-12-03T18:34:59.014Z,22.00
2022-12-03T18:37:30.501Z,21.90
2022-12-03T18:39:59.068Z,21.90
2022-12-03T18:42:26.664Z,21.90
2022-12-03T18:44:56.211Z,21.90
2022-12-03T18:47:31.155Z,21.90
2022-12-03T18:49:58.586Z,21.90
2022-12-03T18:52:26.332Z,21.90
2022-12-03T18:54:54.895Z,21.90
2022-12-03T18:57:22.243Z,21.90
2022-12-03T18:59:49.630Z,21.90
2022-12-03T19:05:10.037Z,21.90
2022-12-03T19:07:39.143Z,21.90
2022-12-03T19:10:07.140Z,21.90
2022-12-03T19:12:35.111Z,21.90
2022-12-03T19:15:03.831Z,21.90
2022-12-03T19:17:33.129Z,21.90
2022-12-03T19:20:00.772Z,21.90
2022-12-03T19:22:28.402Z,21.90
2022-12-03T19:24:59.043Z,21.80
2022-12-03T19:27:26.501Z,21.90
2022-12-03T19:29:54.301Z,21.90
2022-12-03T19:32:22.018Z,21.90
2022-12-03T19:34:49.647Z,21.90
2022-12-03T19:37:17.258Z,21.90
2022-12-03T19:41:08.183Z,21.90
2022-12-03T19:43:37.932Z,21.90
2022-12-03T19:46:08.331Z,21.90
2022-12-03T19:48:38.411Z,21.90
2022-12-03T19:51:33.118Z,22.00
2022-12-03T19:53:57.498Z,22.00
2022-12-03T19:56:25.479Z,22.00
2022-12-03T19:58:56.943Z,22.00
2022-12-03T20:01:27.216Z,22.00
2022-12-03T20:03:57.139Z,22.00
2022-12-03T20:06:28.233Z,22.10
2022-12-03T20:09:05.197Z,22.10
2022-12-03T20:11:34.236Z,22.10
2022-12-03T20:14:06.000Z,22.00
2022-12-03T20:16:34.709Z,22.00
2022-12-03T20:19:05.401Z,22.00
2022-12-03T20:21:35.486Z,22.00
2022-12-03T20:24:04.112Z,21.90
2022-12-03T20:26:33.493Z,22.00
2022-12-03T20:29:01.619Z,22.00
2022-12-03T20:31:31.464Z,22.00
2022-12-03T20:34:02.200Z,22.00
2022-12-03T20:36:32.438Z,22.00
2022-12-03T20:39:05.701Z,22.10
2022-12-03T20:41:36.629Z,22.10
2022-12-03T20:44:06.453Z,22.10
2022-12-03T20:46:34.351Z,22.10
2022-12-03T20:49:02.149Z,22.10
2022-12-03T20:51:30.703Z,22.10
2022-12-03T20:53:59.547Z,22.20
2022-12-03T20:56:28.723Z,22.20
2022-12-03T20:58:56.219Z,22.20
2022-12-03T21:01:27.036Z,22.20
2022-12-03T21:03:56.601Z,22.20
2022-12-03T21:06:26.126Z,22.20
2022-12-03T21:08:55.065Z,22.30
2022-12-03T21:11:24.363Z,22.30
2022-12-03T21:13:52.432Z,22.30
2022-12-03T21:16:46.026Z,22.30
2022-12-03T21:19:12.543Z,22.40
2022-12-03T21:21:42.729Z,22.40
2022-12-03T21:24:12.664Z,22.40
2022-12-03T21:26:39.808Z,22.40
2022-12-03T21:29:07.297Z,22.40
2022-12-03T21:31:35.784Z,22.40
2022-12-03T21:34:03.059Z,22.40
2022-12-03T21:36:29.981Z,22.40
2022-12-03T21:38:57.551Z,22.30
2022-12-03T21:41:24.676Z,22.40
2022-12-03T21:43:52.329Z,22.40
2022-12-03T21:47:10.255Z,22.40
2022-12-03T21:49:08.866Z,22.40
2022-12-03T21:51:35.910Z,22.40
2022-12-03T21:54:03.336Z,22.40
2022-12-03T21:56:32.227Z,22.40
2022-12-03T21:58:59.764Z,22.40
2022-12-03T22:01:27.342Z,22.50
2022-12-03T22:03:54.367Z,22.50
2022-12-03T22:06:22.481Z,22.50
2022-12-03T22:08:50.267Z,22.50
2022-12-03T22:11:22.630Z,22.50
2022-12-03T22:13:50.298Z,22.50
2022-12-03T22:16:22.074Z,22.50
2022-12-03T22:18:49.839Z,22.50
2022-12-03T22:21:20.141Z,22.50
2022-12-03T22:23:47.218Z,22.50
2022-12-03T22:26:17.294Z,22.50
2022-12-03T22:28:49.170Z,22.60
2022-12-03T22:31:17.275Z,22.60
2022-12-03T22:33:48.277Z,22.60
2022-12-03T22:36:21.021Z,22.60
2022-12-03T22:38:49.965Z,22.60
2022-12-03T22:41:17.861Z,22.60
2022-12-03T22:43:45.552Z,22.60
2022-12-03T22:46:12.978Z,22.60
2022-12-03T22:48:45.034Z,22.60
2022-12-03T22:51:23.753Z,22.60
2022-12-03T22:53:56.933Z,22.60
2022-12-03T22:56:24.492Z,22.60
2022-12-03T22:58:51.866Z,22.60
2022-12-03T23:01:22.991Z,22.60
2022-12-03T23:03:50.370Z,22.60
2022-12-03T23:06:18.165Z,22.50
2022-12-03T23:08:45.443Z,22.60
2022-12-03T23:11:12.555Z,22.60
2022-12-03T23:13:40.025Z,22.60
2022-12-03T23:16:07.673Z,22.60
2022-12-03T23:18:34.791Z,22.60
2022-12-03T23:21:01.796Z,22.60
2022-12-03T23:23:28.707Z,22.50
2022-12-03T23:26:08.025Z,22.60
2022-12-03T23:28:37.228Z,22.60
2022-12-03T23:31:05.473Z,22.60
2022-12-03T23:33:37.979Z,22.60
2022-12-03T23:36:06.775Z,22.60
2022-12-03T23:38:33.863Z,22.60
2022-12-03T23:41:15.327Z,22.60
2022-12-03T23:43:42.663Z,22.60
2022-12-03T23:46:15.296Z,22.60
2022-12-03T23:48:43.013Z,22.50
2022-12-03T23:51:18.683Z,22.60
2022-12-03T23:53:46.118Z,22.50
2022-12-03T23:56:19.260Z,22.50
2022-12-03T23:58:47.149Z,22.50
